Time;durP1;ratioP1;P1;durP2;ratioP2;P2;SDS_P1;SDS_P2;PMS_P1;PMS_P2;Temp;Humidity;BMP_temperature;BMP_pressure;BME280_temperature;BME280_humidity;BME280_pressure;Samples;Min_cycle;Max_cycle;Signal;HPM_P1;HPM_P2
2022/03/03 04:00:40;;;;;;;2.27;2.17;;;3.50;66.60;;;;;;6052427;23;20379;-73
2022/03/03 04:03:07;;;;;;;2.20;2.10;;;3.50;66.50;;;;;;4997449;28;20465;-73
2022/03/03 04:05:34;;;;;;;2.40;2.20;;;3.50;66.30;;;;;;4997146;28;20948;-73
2022/03/03 04:08:00;;;;;;;2.80;2.60;;;3.50;66.20;;;;;;4997524;28;20445;-73
2022/03/03 04:10:28;;;;;;;2.70;2.50;;;3.50;66.20;;;;;;4996767;28;20499;-73
2022/03/03 04:12:55;;;;;;;2.40;2.30;;;3.50;65.90;;;;;;4978031;28;20453;-73
2022/03/03 04:17:50;;;;;;;2.50;2.40;;;3.50;65.80;;;;;;5016874;23;20914;-70
2022/03/03 04:20:18;;;;;;;2.53;2.43;;;3.40;66.20;;;;;;4996489;28;20499;-71
2022/03/03 04:22:44;;;;;;;2.33;2.23;;;3.40;65.80;;;;;;4996443;28;20463;-71
2022/03/03 04:25:11;;;;;;;2.63;2.50;;;3.40;65.50;;;;;;4996428;28;20480;-71
2022/03/03 04:27:38;;;;;;;2.30;2.20;;;3.30;65.80;;;;;;4978295;28;20516;-71
2022/03/03 04:30:06;;;;;;;2.40;2.30;;;3.30;66.10;;;;;;4976901;28;20526;-71
2022/03/03 04:32:33;;;;;;;2.37;2.27;;;3.30;66.20;;;;;;4976787;28;20442;-71
2022/03/03 04:35:01;;;;;;;2.20;2.10;;;3.30;66.10;;;;;;4976029;28;20454;-71
2022/03/03 04:37:28;;;;;;;2.00;1.90;;;3.20;66.20;;;;;;4976537;28;20574;-71
2022/03/03 04:39:55;;;;;;;2.37;2.27;;;3.20;66.10;;;;;;4976702;28;20557;-72
2022/03/03 04:42:22;;;;;;;2.57;2.47;;;3.30;66.10;;;;;;4976712;28;20450;-71
2022/03/03 04:44:49;;;;;;;2.23;2.13;;;3.20;66.30;;;;;;4976858;28;20442;-71
2022/03/03 04:47:15;;;;;;;2.93;2.73;;;3.20;66.40;;;;;;4976230;28;20469;-71
2022/03/03 04:49:42;;;;;;;2.50;2.40;;;3.20;66.40;;;;;;4976607;28;20779;-71
2022/03/03 04:52:10;;;;;;;2.40;2.30;;;3.20;66.50;;;;;;4976210;28;20988;-71
2022/03/03 04:54:37;;;;;;;2.37;2.17;;;3.10;66.80;;;;;;4976477;28;20453;-71
2022/03/03 04:57:04;;;;;;;2.77;2.57;;;3.10;67.10;;;;;;4976247;28;20486;-71
2022/03/03 04:59:31;;;;;;;2.63;2.47;;;3.10;67.10;;;;;;4976077;28;20996;-71
2022/03/03 05:01:58;;;;;;;2.57;2.37;;;3.10;67.10;;;;;;4976064;28;21007;-71
2022/03/03 05:04:25;;;;;;;2.10;2.00;;;3.10;67.10;;;;;;4976306;28;20501;-71
2022/03/03 05:06:52;;;;;;;2.60;2.50;;;3.20;66.90;;;;;;4976195;28;20474;-71
2022/03/03 05:09:20;;;;;;;2.50;2.30;;;3.20;66.90;;;;;;4975871;28;20519;-71
2022/03/03 05:11:46;;;;;;;2.70;2.50;;;3.20;66.80;;;;;;4976096;28;20498;-71
2022/03/03 05:14:13;;;;;;;2.13;2.03;;;3.20;66.50;;;;;;4976019;28;20997;-71
2022/03/03 05:16:40;;;;;;;2.50;2.40;;;3.20;66.60;;;;;;4975656;28;20916;-71
2022/03/03 05:19:06;;;;;;;2.13;2.03;;;3.10;66.60;;;;;;4975940;28;20477;-71
2022/03/03 05:21:33;;;;;;;2.70;2.50;;;3.10;66.80;;;;;;4975807;28;20937;-71
2022/03/03 05:24:00;;;;;;;2.40;2.20;;;3.10;66.70;;;;;;4975978;28;20450;-71
2022/03/03 05:26:28;;;;;;;2.53;2.33;;;3.10;66.50;;;;;;4975566;28;21011;-71
2022/03/03 05:28:55;;;;;;;2.37;2.17;;;3.00;66.30;;;;;;4975792;28;20453;-71
2022/03/03 05:31:21;;;;;;;2.17;2.07;;;3.00;66.20;;;;;;4975711;28;20446;-71
2022/03/03 05:33:48;;;;;;;2.67;2.50;;;2.80;66.80;;;;;;4975743;28;20453;-71
2022/03/03 05:36:15;;;;;;;3.10;2.90;;;2.70;67.30;;;;;;4975232;28;20536;-71
2022/03/03 05:38:42;;;;;;;2.80;2.60;;;2.70;67.60;;;;;;4975293;28;20938;-71
2022/03/03 05:41:09;;;;;;;2.77;2.57;;;2.60;68.50;;;;;;4975529;28;20523;-71
2022/03/03 05:43:37;;;;;;;2.73;2.63;;;2.40;68.90;;;;;;4975527;28;20453;-71
2022/03/03 05:46:05;;;;;;;2.30;2.10;;;2.50;69.30;;;;;;4974955;28;20504;-71
2022/03/03 05:48:31;;;;;;;3.13;2.93;;;2.60;69.10;;;;;;4974995;28;20452;-71
2022/03/03 05:50:58;;;;;;;2.63;2.53;;;2.70;68.90;;;;;;4975342;28;20869;-71
2022/03/03 05:53:26;;;;;;;2.70;2.57;;;2.80;68.70;;;;;;4975287;28;20455;-71
2022/03/03 05:55:54;;;;;;;2.50;2.40;;;2.90;68.30;;;;;;4975555;28;20485;-71
2022/03/03 05:58:24;;;;;;;2.70;2.50;;;2.90;67.70;;;;;;4975311;28;20452;-71
2022/03/03 06:00:56;;;;;;;2.37;2.27;;;2.90;67.50;;;;;;4975367;28;20478;-70
2022/03/03 06:03:25;;;;;;;2.30;2.20;;;2.80;67.10;;;;;;4975225;28;20831;-71
2022/03/03 06:05:53;;;;;;;2.47;2.37;;;2.80;66.90;;;;;;4975098;28;20477;-71
2022/03/03 06:08:26;;;;;;;2.70;2.50;;;2.80;66.80;;;;;;4974863;28;20941;-71
2022/03/03 06:10:54;;;;;;;2.40;2.20;;;2.80;67.10;;;;;;4975122;28;20502;-71
2022/03/03 06:13:24;;;;;;;2.47;2.30;;;2.80;67.00;;;;;;4975016;28;20876;-71
2022/03/03 06:15:53;;;;;;;2.53;2.37;;;2.80;66.80;;;;;;4974856;28;20514;-71
2022/03/03 06:18:21;;;;;;;2.47;2.30;;;2.70;66.70;;;;;;4974585;28;20520;-71
2022/03/03 06:20:50;;;;;;;2.47;2.27;;;2.70;66.70;;;;;;4974915;28;20533;-71
2022/03/03 06:23:17;;;;;;;2.47;2.37;;;2.70;66.80;;;;;;4975088;28;20450;-71
2022/03/03 06:25:44;;;;;;;2.47;2.37;;;2.70;66.70;;;;;;4974730;28;20474;-71
2022/03/03 06:28:11;;;;;;;2.47;2.37;;;2.80;66.80;;;;;;4974828;28;20546;-70
2022/03/03 06:30:38;;;;;;;2.87;2.63;;;2.80;66.80;;;;;;4974741;28;20442;-70
2022/03/03 06:33:06;;;;;;;2.30;2.13;;;3.00;67.00;;;;;;4974813;28;20454;-70
2022/03/03 06:35:35;;;;;;;2.20;2.10;;;3.80;65.50;;;;;;4974694;28;20528;-71
2022/03/03 06:38:04;;;;;;;2.80;2.60;;;4.30;63.40;;;;;;4974551;28;20536;-71
2022/03/03 06:40:31;;;;;;;2.73;2.57;;;4.70;62.40;;;;;;4974638;28;20454;-71
2022/03/03 06:43:00;;;;;;;2.40;2.10;;;5.70;60.70;;;;;;4974817;28;20505;-71
2022/03/03 06:45:27;;;;;;;2.60;2.50;;;7.00;57.60;;;;;;4974560;28;20548;-72
2022/03/03 06:47:54;;;;;;;2.03;1.93;;;8.30;54.00;;;;;;4974554;28;20442;-71
2022/03/03 06:50:23;;;;;;;2.13;2.03;;;9.50;51.50;;;;;;4974190;28;20938;-71
2022/03/03 06:52:51;;;;;;;1.90;1.80;;;10.60;49.10;;;;;;4974519;28;20497;-72
2022/03/03 06:55:20;;;;;;;2.33;2.13;;;11.60;47.00;;;;;;4974536;28;20453;-71
2022/03/03 06:57:49;;;;;;;2.20;2.10;;;12.70;45.50;;;;;;4973975;28;20481;-72
2022/03/03 07:00:19;;;;;;;1.80;1.70;;;13.60;43.50;;;;;;4974422;28;20450;-72
2022/03/03 07:02:47;;;;;;;1.50;1.40;;;14.30;42.30;;;;;;4974219;28;20964;-72
2022/03/03 07:05:14;;;;;;;1.80;1.70;;;15.00;41.40;;;;;;4974460;28;20489;-72
2022/03/03 07:07:43;;;;;;;2.40;2.30;;;15.80;39.90;;;;;;4974355;28;20470;-71
2022/03/03 07:10:10;;;;;;;1.90;1.80;;;16.30;38.10;;;;;;4974394;28;20537;-71
2022/03/03 07:12:37;;;;;;;2.60;2.43;;;15.60;38.80;;;;;;4974284;28;20454;-71
2022/03/03 07:15:05;;;;;;;2.60;2.40;;;15.10;39.50;;;;;;4974325;28;20830;-72
2022/03/03 07:17:41;;;;;;;2.47;2.27;;;14.30;40.90;;;;;;4973862;28;20493;-72
2022/03/03 07:20:14;;;;;;;2.10;2.00;;;13.80;41.60;;;;;;4974295;28;20485;-71
2022/03/03 07:22:56;;;;;;;2.27;2.10;;;14.30;40.90;;;;;;4974288;28;20447;-71
2022/03/03 07:25:26;;;;;;;2.30;2.17;;;14.30;41.60;;;;;;4974248;28;20438;-72
2022/03/03 07:27:57;;;;;;;2.53;2.33;;;13.90;41.10;;;;;;4974290;28;20450;-72
2022/03/03 07:30:25;;;;;;;2.27;2.17;;;13.70;42.20;;;;;;4974059;28;20501;-71
2022/03/03 07:32:57;;;;;;;2.20;2.10;;;14.10;41.20;;;;;;4974205;28;20458;-72
2022/03/03 07:35:25;;;;;;;2.30;2.10;;;15.10;40.50;;;;;;4974310;28;20434;-71
2022/03/03 07:37:59;;;;;;;2.30;2.10;;;16.50;38.80;;;;;;4974399;28;20580;-71
2022/03/03 07:40:28;;;;;;;2.47;2.37;;;18.60;36.50;;;;;;4974793;28;20434;-71
2022/03/03 07:42:55;;;;;;;2.33;2.13;;;20.60;33.80;;;;;;4974173;28;20454;-73
2022/03/03 07:45:23;;;;;;;2.20;2.10;;;21.90;31.10;;;;;;4974261;28;20508;-71
2022/03/03 07:47:49;;;;;;;2.50;2.30;;;22.60;31.10;;;;;;4975551;28;20446;-71
2022/03/03 07:50:16;;;;;;;2.30;2.20;;;23.60;29.60;;;;;;4973887;28;21001;-72
2022/03/03 07:52:44;;;;;;;2.40;2.20;;;24.70;28.70;;;;;;4974412;28;20499;-73
2022/03/03 07:55:13;;;;;;;2.30;2.20;;;25.60;27.70;;;;;;4974201;28;20457;-73
2022/03/03 07:57:42;;;;;;;2.70;2.50;;;25.80;27.20;;;;;;4973989;28;20580;-73
2022/03/03 08:00:13;;;;;;;2.20;2.10;;;26.40;27.10;;;;;;4974073;28;20450;-72
2022/03/03 08:02:43;;;;;;;2.40;2.30;;;27.00;26.40;;;;;;4974077;28;20454;-72
2022/03/03 08:05:11;;;;;;;2.10;2.00;;;27.00;26.20;;;;;;4974044;28;20454;-73
2022/03/03 08:07:42;;;;;;;1.83;1.70;;;26.30;26.50;;;;;;4973846;28;20569;-72
2022/03/03 08:10:11;;;;;;;2.00;1.90;;;25.40;27.50;;;;;;4974853;28;20445;-72
2022/03/03 08:12:41;;;;;;;2.03;1.93;;;24.30;27.70;;;;;;4977120;28;20453;-72
2022/03/03 08:15:09;;;;;;;2.50;2.30;;;22.50;28.80;;;;;;4977333;28;20456;-73
2022/03/03 08:17:36;;;;;;;2.27;2.07;;;21.10;30.90;;;;;;4976831;28;20508;-72
2022/03/03 08:20:05;;;;;;;2.40;2.30;;;20.00;32.30;;;;;;4977579;28;20504;-73
2022/03/03 08:22:33;;;;;;;2.33;2.17;;;18.70;33.80;;;;;;4977610;28;20458;-72
2022/03/03 08:25:00;;;;;;;2.50;2.40;;;17.10;35.70;;;;;;4977683;28;20453;-72
2022/03/03 08:27:28;;;;;;;2.20;2.10;;;15.50;37.10;;;;;;4977438;28;20473;-72
2022/03/03 08:29:57;;;;;;;2.20;2.10;;;14.30;39.90;;;;;;4977366;28;20458;-72
2022/03/03 08:32:34;;;;;;;2.23;2.13;;;13.50;41.30;;;;;;4976952;28;20449;-72
2022/03/03 08:35:07;;;;;;;2.30;2.20;;;12.40;42.50;;;;;;4977029;28;20800;-72
2022/03/03 08:37:36;;;;;;;2.80;2.60;;;11.70;44.80;;;;;;4977136;28;20501;-72
2022/03/03 08:40:05;;;;;;;2.27;2.17;;;11.30;46.20;;;;;;4977272;28;20489;-71
2022/03/03 08:42:36;;;;;;;2.30;2.20;;;11.10;45.80;;;;;;4977273;28;20458;-72
2022/03/03 08:45:08;;;;;;;2.17;2.00;;;10.60;47.00;;;;;;4977565;28;20854;-72
2022/03/03 08:47:35;;;;;;;2.70;2.50;;;10.60;47.30;;;;;;4976858;28;21001;-72
2022/03/03 08:50:05;;;;;;;2.60;2.40;;;10.60;46.60;;;;;;4976837;28;20512;-72
2022/03/03 08:52:32;;;;;;;2.40;2.30;;;10.40;47.10;;;;;;4977083;28;20457;-72
2022/03/03 08:54:59;;;;;;;2.63;2.43;;;10.20;48.00;;;;;;4976828;28;20454;-72
2022/03/03 08:57:26;;;;;;;2.40;2.20;;;10.00;49.30;;;;;;4976744;28;20489;-72
2022/03/03 08:59:52;;;;;;;2.43;2.23;;;10.10;48.60;;;;;;4976346;28;20983;-72
2022/03/03 09:02:21;;;;;;;2.50;2.40;;;10.00;49.10;;;;;;4976950;28;20454;-72
2022/03/03 09:04:47;;;;;;;2.80;2.60;;;9.90;49.80;;;;;;4977464;28;20462;-72
2022/03/03 09:07:15;;;;;;;2.37;2.27;;;9.90;49.40;;;;;;4976676;28;20470;-72
2022/03/03 09:09:42;;;;;;;2.70;2.50;;;9.20;50.60;;;;;;4976807;28;20454;-72
2022/03/03 09:12:09;;;;;;;2.63;2.43;;;9.10;52.60;;;;;;4976480;28;20477;-72
2022/03/03 09:14:36;;;;;;;2.50;2.40;;;9.10;52.80;;;;;;4976372;28;20445;-72
2022/03/03 09:17:04;;;;;;;2.70;2.50;;;8.90;53.50;;;;;;4975831;28;20497;-72
2022/03/03 09:19:32;;;;;;;2.43;2.27;;;8.90;53.40;;;;;;4975865;28;20934;-72
2022/03/03 09:21:58;;;;;;;2.27;2.17;;;9.10;53.20;;;;;;4975643;28;20449;-72
2022/03/03 09:24:25;;;;;;;3.10;2.90;;;9.30;53.00;;;;;;4976210;28;20453;-71
2022/03/03 09:26:54;;;;;;;2.97;2.77;;;9.40;53.20;;;;;;4975920;28;20470;-71
2022/03/03 09:29:20;;;;;;;2.90;2.70;;;8.90;54.20;;;;;;4975607;28;20814;-71
2022/03/03 09:31:47;;;;;;;2.67;2.47;;;8.90;54.60;;;;;;4975936;28;20455;-71
2022/03/03 09:34:14;;;;;;;3.10;2.90;;;9.00;54.80;;;;;;4975988;28;20537;-69
2022/03/03 09:36:43;;;;;;;2.90;2.70;;;8.90;55.80;;;;;;4975779;28;20847;-71
2022/03/03 09:39:09;;;;;;;3.00;2.80;;;9.00;55.50;;;;;;4975983;28;20482;-69
2022/03/03 09:41:36;;;;;;;2.73;2.53;;;8.90;55.60;;;;;;4975451;28;20960;-71
2022/03/03 09:44:03;;;;;;;2.93;2.73;;;8.70;55.90;;;;;;4975910;28;20454;-69
2022/03/03 09:46:30;;;;;;;3.27;3.07;;;8.70;56.50;;;;;;4975518;28;20462;-70
2022/03/03 09:48:57;;;;;;;3.07;2.87;;;8.50;56.80;;;;;;4975474;28;20438;-70
2022/03/03 09:51:23;;;;;;;2.70;2.50;;;8.50;56.20;;;;;;4975485;28;20451;-70
2022/03/03 09:53:51;;;;;;;2.60;2.40;;;8.50;56.70;;;;;;4975384;28;20454;-70
2022/03/03 09:56:18;;;;;;;3.43;3.23;;;8.50;57.40;;;;;;4975447;28;20466;-69
2022/03/03 09:58:45;;;;;;;6.53;2.77;;;8.50;57.50;;;;;;4975243;28;20474;-70
2022/03/03 10:01:13;;;;;;;3.60;3.30;;;8.50;57.40;;;;;;4975046;28;20449;-70
2022/03/03 10:03:41;;;;;;;3.10;2.90;;;8.40;57.10;;;;;;4975176;28;20516;-69
2022/03/03 10:06:12;;;;;;;3.57;3.27;;;8.30;58.00;;;;;;4974806;28;21057;-71
2022/03/03 10:08:39;;;;;;;3.00;2.80;;;8.50;59.20;;;;;;4975357;28;20430;-69
2022/03/03 10:11:09;;;;;;;2.33;2.23;;;8.60;57.80;;;;;;4975192;28;20454;-69
2022/03/03 10:13:47;;;;;;;3.10;2.90;;;8.20;58.60;;;;;;4975365;28;20450;-70
2022/03/03 10:16:20;;;;;;;3.30;3.00;;;8.30;58.00;;;;;;5094754;23;20865;-74
2022/03/03 10:18:53;;;;;;;3.00;2.80;;;8.20;58.90;;;;;;4975051;28;20485;-73
2022/03/03 10:21:20;;;;;;;2.87;2.67;;;8.00;59.60;;;;;;4975403;28;20450;-72
2022/03/03 10:23:47;;;;;;;2.80;2.60;;;8.30;60.10;;;;;;4975369;28;20457;-72
2022/03/03 10:26:15;;;;;;;2.70;2.60;;;8.40;59.50;;;;;;4972155;28;20842;-73
2022/03/03 10:28:48;;;;;;;3.20;3.00;;;8.50;59.50;;;;;;4956006;29;20878;-72
2022/03/03 10:31:16;;;;;;;3.00;2.80;;;8.80;59.10;;;;;;4955975;29;20534;-72
2022/03/03 10:33:46;;;;;;;2.93;2.73;;;8.80;58.30;;;;;;4955279;28;20817;-72
2022/03/03 10:36:15;;;;;;;3.30;3.10;;;8.90;58.80;;;;;;4955791;28;20476;-73
2022/03/03 10:38:48;;;;;;;3.10;2.90;;;9.00;58.20;;;;;;4955517;29;20486;-73
2022/03/03 10:41:46;;;;;;;3.37;3.07;;;8.90;57.90;;;;;;4955730;29;20872;-73
2022/03/03 10:44:15;;;;;;;3.10;2.90;;;8.90;58.60;;;;;;4912567;29;20545;-73
2022/03/03 10:47:01;;;;;;;3.17;2.97;;;9.00;58.40;;;;;;4955738;28;20494;-73
2022/03/03 10:49:28;;;;;;;3.13;2.70;;;9.10;57.80;;;;;;4955744;29;20518;-72
2022/03/03 10:52:08;;;;;;;3.20;3.00;;;9.30;57.30;;;;;;4955902;29;20455;-73
2022/03/03 10:54:49;;;;;;;4.23;3.00;;;9.30;57.20;;;;;;4955500;29;20903;-73
2022/03/03 10:57:33;;;;;;;2.97;2.77;;;9.30;57.10;;;;;;4955608;28;20501;-73
2022/03/03 11:00:01;;;;;;;2.80;2.60;;;9.40;56.00;;;;;;4955687;29;20431;-73
2022/03/03 11:02:29;;;;;;;2.70;2.50;;;9.60;56.20;;;;;;4955410;29;20470;-73
2022/03/03 11:04:56;;;;;;;3.00;2.80;;;9.70;55.10;;;;;;4955491;29;20454;-73
2022/03/03 11:07:23;;;;;;;2.93;2.73;;;9.90;55.00;;;;;;4955529;28;20478;-73
2022/03/03 11:09:51;;;;;;;3.00;2.80;;;10.20;53.20;;;;;;4955330;29;20455;-73
2022/03/03 11:12:19;;;;;;;3.00;2.80;;;10.30;52.10;;;;;;4955341;29;20457;-73
2022/03/03 11:14:47;;;;;;;3.13;2.77;;;10.40;51.10;;;;;;4955220;29;20494;-73
2022/03/03 11:17:15;;;;;;;2.97;2.70;;;10.70;51.00;;;;;;4955268;28;20479;-73
2022/03/03 11:19:42;;;;;;;2.87;2.67;;;10.80;50.20;;;;;;4955319;29;20483;-73
2022/03/03 11:22:09;;;;;;;3.00;2.80;;;11.00;49.70;;;;;;4955279;29;20505;-72
2022/03/03 11:24:39;;;;;;;2.73;2.60;;;11.20;49.20;;;;;;4955122;29;21010;-74
2022/03/03 11:27:07;;;;;;;3.00;2.80;;;11.40;48.80;;;;;;4956822;28;20481;-74
2022/03/03 11:29:38;;;;;;;2.97;2.77;;;11.40;48.70;;;;;;4976092;29;20478;-73
2022/03/03 11:32:07;;;;;;;2.83;2.63;;;11.50;48.20;;;;;;4969785;29;20435;-74
2022/03/03 11:34:43;;;;;;;2.57;2.40;;;11.60;47.00;;;;;;4956418;29;20458;-75
2022/03/03 11:37:17;;;;;;;2.70;2.50;;;11.60;46.70;;;;;;4955853;28;20480;-74
2022/03/03 11:39:46;;;;;;;2.90;2.70;;;11.70;47.00;;;;;;4955615;29;20471;-73
2022/03/03 11:42:28;;;;;;;2.73;2.53;;;11.80;46.60;;;;;;4955345;29;20977;-73
2022/03/03 11:44:59;;;;;;;3.33;3.03;;;11.80;46.50;;;;;;4957957;28;20431;-73
2022/03/03 11:47:28;;;;;;;2.53;2.40;;;11.70;45.90;;;;;;4960764;28;20530;-74
2022/03/03 11:50:16;;;;;;;2.53;2.43;;;11.90;45.90;;;;;;4960107;29;20450;-73
2022/03/03 11:52:45;;;;;;;2.80;2.60;;;11.80;45.00;;;;;;4959714;29;20871;-73
2022/03/03 11:55:33;;;;;;;2.60;2.40;;;11.70;45.40;;;;;;4959483;29;20506;-74
2022/03/03 11:58:02;;;;;;;2.90;2.70;;;12.00;45.30;;;;;;4958880;28;20470;-72
2022/03/03 12:00:30;;;;;;;2.87;2.67;;;12.00;44.50;;;;;;4958581;29;20447;-73
2022/03/03 12:03:01;;;;;;;2.40;2.20;;;12.00;44.80;;;;;;4958456;29;20706;-73
2022/03/03 12:05:46;;;;;;;2.33;2.13;;;11.80;42.40;;;;;;4958504;29;20844;-73
2022/03/03 12:08:33;;;;;;;2.20;2.10;;;11.90;42.90;;;;;;4957973;28;20467;-73
2022/03/03 12:11:11;;;;;;;2.87;2.67;;;12.00;42.90;;;;;;4958353;29;20510;-73
2022/03/03 12:13:49;;;;;;;2.37;2.27;;;12.10;42.70;;;;;;4958287;29;20435;-73
2022/03/03 12:16:25;;;;;;;2.40;2.27;;;12.30;43.60;;;;;;4958005;28;20465;-74
2022/03/03 12:19:08;;;;;;;2.30;2.20;;;12.40;42.90;;;;;;4958121;29;20478;-73
2022/03/03 12:21:36;;;;;;;2.20;2.10;;;12.60;42.30;;;;;;4958636;29;20486;-73
2022/03/03 12:24:33;;;;;;;2.57;2.37;;;13.00;40.90;;;;;;4958009;29;20451;-73
2022/03/03 12:27:15;;;;;;;2.77;2.57;;;13.00;40.50;;;;;;4958032;28;20471;-73
2022/03/03 12:30:08;;;;;;;2.00;1.90;;;13.30;40.40;;;;;;4957952;29;20526;-73
2022/03/03 12:32:40;;;;;;;3.40;2.13;;;13.60;39.60;;;;;;4940387;29;20462;-74
2022/03/03 12:35:12;;;;;;;2.57;2.37;;;13.90;39.30;;;;;;4957982;29;20443;-73
2022/03/03 12:37:44;;;;;;;2.23;2.13;;;14.20;37.80;;;;;;4958198;28;20475;-72
2022/03/03 12:40:14;;;;;;;2.20;2.10;;;14.00;37.20;;;;;;4958683;29;20479;-74
2022/03/03 12:42:43;;;;;;;1.80;1.70;;;14.10;37.60;;;;;;4958683;29;20542;-73
2022/03/03 12:45:12;;;;;;;2.27;2.10;;;14.40;37.40;;;;;;4958025;29;20595;-73
2022/03/03 12:47:41;;;;;;;4.83;2.70;;;14.80;37.70;;;;;;4958031;28;20812;-73
2022/03/03 12:50:12;;;;;;;2.50;2.30;;;15.10;37.70;;;;;;4958524;29;20947;-73
2022/03/03 12:52:40;;;;;;;2.27;2.17;;;15.30;36.60;;;;;;4957642;29;20451;-74
2022/03/03 12:55:09;;;;;;;1.90;1.80;;;15.40;36.50;;;;;;4958414;29;20451;-72
2022/03/03 12:57:39;;;;;;;2.10;2.00;;;15.50;42.40;;;;;;4957088;28;20478;-73
2022/03/03 13:00:09;;;;;;;2.40;2.30;;;15.70;41.00;;;;;;4957958;29;20845;-75
2022/03/03 13:02:50;;;;;;;2.20;2.10;;;15.80;36.30;;;;;;4957870;29;20970;-75
2022/03/03 13:05:43;;;;;;;2.70;2.50;;;16.00;36.00;;;;;;4958525;29;20546;-75
2022/03/03 13:08:21;;;;;;;1.93;1.83;;;16.10;36.40;;;;;;4953631;28;20558;-75
2022/03/03 13:10:49;;;;;;;2.53;2.33;;;16.00;35.20;;;;;;4957464;29;20543;-75
2022/03/03 13:13:16;;;;;;;2.20;2.10;;;16.10;36.00;;;;;;4957746;29;20487;-74
2022/03/03 13:15:44;;;;;;;3.00;2.80;;;15.90;34.60;;;;;;4957206;29;21030;-75
2022/03/03 13:18:13;;;;;;;2.40;2.20;;;15.30;36.30;;;;;;4957326;28;20510;-76
2022/03/03 13:20:43;;;;;;;2.10;2.00;;;15.40;36.70;;;;;;4957516;29;20498;-74
2022/03/03 13:23:12;;;;;;;2.30;2.20;;;15.60;35.30;;;;;;4957557;29;20447;-75
2022/03/03 13:25:39;;;;;;;2.40;2.30;;;15.40;35.30;;;;;;4957429;29;20451;-75
2022/03/03 13:28:06;;;;;;;2.43;2.23;;;15.40;35.90;;;;;;4957494;28;20879;-75
2022/03/03 13:30:34;;;;;;;2.40;2.20;;;15.30;36.50;;;;;;4957180;29;20447;-75
2022/03/03 13:33:00;;;;;;;2.07;1.97;;;15.50;37.20;;;;;;4957648;29;20498;-75
2022/03/03 13:35:39;;;;;;;2.40;2.20;;;15.80;36.90;;;;;;4956826;29;20470;-75
2022/03/03 13:38:08;;;;;;;2.60;2.40;;;16.20;36.00;;;;;;4956848;28;20557;-75
2022/03/03 13:40:36;;;;;;;2.47;2.27;;;16.40;37.20;;;;;;4957093;29;20521;-75
2022/03/03 13:43:03;;;;;;;2.57;2.37;;;16.50;37.10;;;;;;4957090;29;20527;-76
2022/03/03 13:45:32;;;;;;;2.53;2.43;;;16.60;36.60;;;;;;4956720;29;20985;-75
2022/03/03 13:48:05;;;;;;;2.33;2.23;;;16.30;37.30;;;;;;4956895;28;20470;-74
2022/03/03 13:50:31;;;;;;;2.73;2.53;;;16.30;37.90;;;;;;4956742;29;20450;-75
2022/03/03 13:53:18;;;;;;;3.43;2.80;;;16.50;37.50;;;;;;4957027;29;20458;-75
2022/03/03 13:55:45;;;;;;;2.50;2.40;;;17.00;37.40;;;;;;4956979;29;20514;-75
2022/03/03 13:58:25;;;;;;;1.97;1.87;;;17.50;35.70;;;;;;4957025;28;21043;-76
2022/03/03 14:00:53;;;;;;;3.33;3.13;;;18.20;35.40;;;;;;4957262;29;20431;-75
2022/03/03 14:03:20;;;;;;;2.80;2.60;;;19.20;34.20;;;;;;4957308;29;20486;-74
2022/03/03 14:05:50;;;;;;;2.70;2.50;;;20.80;32.60;;;;;;4957053;29;20447;-75
2022/03/03 14:08:23;;;;;;;2.90;2.70;;;22.00;30.90;;;;;;4955849;28;20498;-75
2022/03/03 14:10:52;;;;;;;2.83;2.63;;;23.20;30.00;;;;;;4957021;29;20447;-76
2022/03/03 14:13:21;;;;;;;3.00;2.80;;;24.40;28.70;;;;;;4958019;29;20451;-75
2022/03/03 14:15:49;;;;;;;2.70;2.50;;;24.70;27.90;;;;;;4957522;29;21016;-75
2022/03/03 14:18:17;;;;;;;3.00;2.80;;;25.00;27.80;;;;;;4956553;28;20509;-76
2022/03/03 14:20:44;;;;;;;2.67;2.47;;;25.90;26.60;;;;;;4958019;29;20533;-76
2022/03/03 14:23:11;;;;;;;2.87;2.67;;;26.30;26.10;;;;;;4958046;29;20454;-76
2022/03/03 14:25:40;;;;;;;2.90;2.70;;;26.40;26.10;;;;;;4957525;29;20451;-76
2022/03/03 14:28:07;;;;;;;2.80;2.60;;;26.70;26.00;;;;;;4958339;28;20478;-75
2022/03/03 14:30:33;;;;;;;3.07;2.87;;;26.90;26.00;;;;;;4958247;29;20860;-76
2022/03/03 14:33:00;;;;;;;2.30;2.20;;;27.30;25.60;;;;;;4958452;29;20939;-76
2022/03/03 14:35:27;;;;;;;2.77;2.63;;;27.10;25.80;;;;;;4958640;29;20937;-76
2022/03/03 14:37:54;;;;;;;2.63;2.47;;;27.10;26.00;;;;;;4957874;28;20478;-75
2022/03/03 14:40:21;;;;;;;2.73;2.53;;;27.20;25.90;;;;;;4957813;29;20534;-76
2022/03/03 14:42:49;;;;;;;2.53;2.33;;;26.40;26.60;;;;;;4959692;29;20455;-76
2022/03/03 14:45:15;;;;;;;2.70;2.50;;;26.60;27.10;;;;;;4958793;29;20958;-76
2022/03/03 14:47:43;;;;;;;2.37;2.27;;;26.90;25.90;;;;;;4957054;28;20478;-76
2022/03/03 14:50:13;;;;;;;4.20;2.63;;;26.50;26.20;;;;;;4957029;29;20498;-76
2022/03/03 14:52:41;;;;;;;2.80;2.60;;;26.40;26.70;;;;;;4957034;29;20540;-76
2022/03/03 14:55:08;;;;;;;2.70;2.50;;;26.70;26.10;;;;;;4956210;29;20451;-75
2022/03/03 14:57:35;;;;;;;2.67;2.47;;;26.70;26.10;;;;;;4955677;28;20474;-75
2022/03/03 15:00:04;;;;;;;2.50;2.30;;;26.70;26.00;;;;;;4955815;29;20478;-75
2022/03/03 15:02:32;;;;;;;2.40;2.30;;;26.50;26.10;;;;;;4955699;29;20451;-75
2022/03/03 15:04:58;;;;;;;2.33;2.23;;;25.90;26.50;;;;;;4955956;29;20459;-76
2022/03/03 15:07:25;;;;;;;2.40;2.20;;;25.80;26.60;;;;;;4955551;28;20479;-76
2022/03/03 15:09:52;;;;;;;2.27;2.17;;;25.60;26.90;;;;;;4955407;29;20455;-75
2022/03/03 15:12:19;;;;;;;2.60;2.40;;;25.70;26.70;;;;;;4955723;29;20459;-76
2022/03/03 15:14:45;;;;;;;2.73;2.53;;;25.50;26.80;;;;;;4956857;29;20446;-75
2022/03/03 15:17:16;;;;;;;2.20;2.10;;;25.30;26.90;;;;;;4956073;28;20482;-75
2022/03/03 15:19:43;;;;;;;2.27;2.17;;;24.90;27.00;;;;;;4958282;28;20954;-76
2022/03/03 15:22:10;;;;;;;2.57;2.37;;;24.90;27.20;;;;;;4959937;29;20451;-75
2022/03/03 15:24:37;;;;;;;2.10;1.90;;;24.70;27.20;;;;;;4960488;29;20451;-75
2022/03/03 15:27:04;;;;;;;2.17;2.07;;;24.50;27.30;;;;;;4961653;28;20470;-76
2022/03/03 15:29:31;;;;;;;2.30;1.87;;;24.20;27.30;;;;;;4962738;29;20878;-75
2022/03/03 15:31:59;;;;;;;2.50;2.40;;;23.70;27.80;;;;;;4961671;29;20951;-75
2022/03/03 15:37:12;;;;;;;2.10;2.00;;;22.10;29.30;;;;;;4961962;28;20495;-75
2022/03/03 15:39:38;;;;;;;2.07;1.97;;;21.40;30.30;;;;;;4962221;29;20491;-74
2022/03/03 15:42:07;;;;;;;2.33;2.13;;;20.80;30.80;;;;;;4962270;29;20457;-75
2022/03/03 15:44:36;;;;;;;2.37;2.27;;;20.20;32.00;;;;;;4959596;29;20462;-74
2022/03/03 15:47:04;;;;;;;2.70;2.50;;;19.50;32.40;;;;;;4960606;28;20478;-74
2022/03/03 15:49:32;;;;;;;2.67;2.47;;;19.00;33.30;;;;;;4961846;29;20454;-74
2022/03/03 15:51:59;;;;;;;2.77;2.57;;;18.20;33.80;;;;;;4961276;29;20461;-74
2022/03/03 15:54:26;;;;;;;2.17;2.07;;;17.50;34.60;;;;;;4964176;29;20533;-75
2022/03/03 15:56:54;;;;;;;2.30;2.20;;;16.90;35.50;;;;;;4960105;28;20478;-75
2022/03/03 15:59:22;;;;;;;2.10;2.00;;;16.40;35.60;;;;;;4960253;29;21052;-74
2022/03/03 16:01:49;;;;;;;2.30;2.10;;;15.90;36.30;;;;;;4960329;29;20451;-75
2022/03/03 16:04:16;;;;;;;2.07;1.97;;;15.60;37.20;;;;;;4961326;29;20459;-75
2022/03/03 16:06:44;;;;;;;2.00;1.90;;;15.40;37.70;;;;;;4959838;28;20989;-75
2022/03/03 16:09:13;;;;;;;2.20;2.10;;;15.00;37.90;;;;;;4960753;29;20557;-75
2022/03/03 16:11:40;;;;;;;2.40;2.20;;;14.80;38.60;;;;;;4960532;29;20514;-75
2022/03/03 16:14:07;;;;;;;2.10;2.00;;;14.60;38.50;;;;;;4960699;29;20455;-74
2022/03/03 16:16:34;;;;;;;2.00;1.90;;;14.50;38.60;;;;;;4961930;28;20466;-75
2022/03/03 16:19:01;;;;;;;2.10;1.90;;;14.30;38.90;;;;;;4962429;29;20462;-75
2022/03/03 16:21:29;;;;;;;2.40;2.20;;;14.10;39.30;;;;;;4960511;29;20853;-75
2022/03/03 16:23:57;;;;;;;2.23;2.07;;;14.00;39.60;;;;;;4960490;29;20462;-75
2022/03/03 16:26:24;;;;;;;2.10;2.00;;;13.80;39.70;;;;;;4961123;28;20486;-75
2022/03/03 16:28:51;;;;;;;2.30;2.10;;;13.60;40.40;;;;;;4960377;29;20458;-75
2022/03/03 16:31:57;;;;;;;2.03;1.93;;;13.40;40.50;;;;;;4959145;28;20458;-75
2022/03/03 16:34:25;;;;;;;2.17;2.07;;;13.30;40.60;;;;;;4960200;29;20882;-75
2022/03/03 16:36:52;;;;;;;2.10;2.00;;;13.10;40.90;;;;;;4959083;28;20478;-75
2022/03/03 16:39:20;;;;;;;2.07;1.90;;;13.00;40.90;;;;;;4960237;29;20530;-75
2022/03/03 16:41:47;;;;;;;2.20;2.00;;;12.90;41.00;;;;;;4959566;29;20488;-75
2022/03/03 16:44:15;;;;;;;2.20;2.10;;;12.80;41.30;;;;;;4959435;29;21017;-75
2022/03/03 16:46:41;;;;;;;2.13;2.03;;;12.80;41.70;;;;;;4959467;28;20501;-75
2022/03/03 16:49:09;;;;;;;2.40;2.30;;;12.60;41.50;;;;;;4959980;29;20533;-75
2022/03/03 16:51:36;;;;;;;1.83;1.73;;;12.60;41.90;;;;;;4959786;29;20459;-75
2022/03/03 16:54:05;;;;;;;2.33;2.13;;;12.60;41.80;;;;;;4959465;29;20514;-75
2022/03/03 16:56:33;;;;;;;2.20;2.10;;;12.50;42.20;;;;;;4960139;28;20479;-75
2022/03/03 16:59:02;;;;;;;2.57;2.37;;;12.50;42.10;;;;;;4960070;29;20966;-74
2022/03/03 17:01:28;;;;;;;2.23;2.07;;;12.50;42.10;;;;;;4959698;29;20550;-75
2022/03/03 17:03:55;;;;;;;1.90;1.80;;;12.40;42.30;;;;;;4960213;29;20517;-74
2022/03/03 17:06:22;;;;;;;2.00;1.90;;;12.30;42.50;;;;;;4960116;28;20459;-74